METAR UND TAF INFORMATION
TJSJ 261656Z 05010KT 10SM SCT028 SCT045 29/23 A2994 RMK AO2 SLP138 T02890228

 FLUGHAFENKARTE

 RUNWAY INFORMATION
Runway 08 Runway length 10002 ft Runway width 200 ft
Runway elevation 8 ft Runway displaced threshold 0 ft Runway heading 67
Runway 26 Runway length 10002 ft Runway width 200 ft
Runway elevation 7 ft Runway displaced threshold 220 ft Runway heading 247
Runway 10 Runway length 8016 ft Runway width 150 ft
Runway elevation 8 ft Runway displaced threshold 0 ft Runway heading 90
Runway 28 Runway length 8016 ft Runway width 150 ft
Runway elevation 8 ft Runway displaced threshold 0 ft Runway heading 270

 AIRPORT FREQUENCIES
Type APP Name SAN JUAN A Frequency 119.4 MHZ
Type ATIS Name ATIS Frequency 125.8 MHZ
Type CLD Name SAN JUAN C Frequency 126.4 MHZ
Type GND Name GND Frequency 121.9 MHZ
Type OPS Name CORONET OA Frequency 25.28 MHZ
Type POST Name PRANG COMD Frequency 139.9 MHZ
Type RDO Name SAN JUAN R Frequency 122.2 MHZ
Type TWR Name SAN JUAN T Frequency 132.05 MHZ
Type UNIC Name UNICOM Frequency 123 MHZ

 AIRPORT NEAR NAVIGATION AIDS
Type NDB Name Patty Frequency 330 KHZ
Type VORTAC Name San Juan Frequency 114000 KHZ